sensor_id;sensor_type;location;lat;lon;timestamp;pressure;altitude;pressure_sealevel;temperature;humidity
13661;BME280;6903;49.480;11.102;2023-06-19T00:01:12;97498.41;;;20.43;83.16
13661;BME280;6903;49.480;11.102;2023-06-19T00:03:37;97494.09;;;20.42;82.94
13661;BME280;6903;49.480;11.102;2023-06-19T00:06:03;97491.78;;;20.39;82.98
13661;BME280;6903;49.480;11.102;2023-06-19T00:08:28;97496.53;;;20.37;82.92
13661;BME280;6903;49.480;11.102;2023-06-19T00:10:54;97488.50;;;20.37;83.14
13661;BME280;6903;49.480;11.102;2023-06-19T00:13:19;97497.91;;;20.33;83.36
13661;BME280;6903;49.480;11.102;2023-06-19T00:15:45;97491.38;;;20.36;83.01
13661;BME280;6903;49.480;11.102;2023-06-19T00:18:10;97491.97;;;20.38;82.56
13661;BME280;6903;49.480;11.102;2023-06-19T00:20:36;97491.97;;;20.38;82.75
13661;BME280;6903;49.480;11.102;2023-06-19T00:23:01;97483.94;;;20.38;82.83
13661;BME280;6903;49.480;11.102;2023-06-19T00:25:26;97487.66;;;20.37;82.75
13661;BME280;6903;49.480;11.102;2023-06-19T00:27:52;97483.94;;;20.38;82.61
13661;BME280;6903;49.480;11.102;2023-06-19T00:30:17;97488.28;;;20.39;82.42
13661;BME280;6903;49.480;11.102;2023-06-19T00:32:43;97478.38;;;20.39;82.26
13661;BME280;6903;49.480;11.102;2023-06-19T00:35:15;97485.63;;;20.39;82.20
13661;BME280;6903;49.480;11.102;2023-06-19T00:37:41;97486.63;;;20.38;82.03
13661;BME280;6903;49.480;11.102;2023-06-19T00:40:12;97482.50;;;20.35;82.00
13661;BME280;6903;49.480;11.102;2023-06-19T00:42:39;97479.81;;;20.35;82.50
13661;BME280;6903;49.480;11.102;2023-06-19T00:45:04;97484.34;;;20.35;82.38
13661;BME280;6903;49.480;11.102;2023-06-19T00:47:33;97483.53;;;20.34;82.21
13661;BME280;6903;49.480;11.102;2023-06-19T00:49:59;97486.41;;;20.33;82.12
13661;BME280;6903;49.480;11.102;2023-06-19T00:52:24;97489.06;;;20.33;82.85
13661;BME280;6903;49.480;11.102;2023-06-19T00:54:49;97495.44;;;20.32;82.96
13661;BME280;6903;49.480;11.102;2023-06-19T00:57:15;97491.75;;;20.33;82.52
13661;BME280;6903;49.480;11.102;2023-06-19T00:59:40;97494.25;;;20.34;82.53
13661;BME280;6903;49.480;11.102;2023-06-19T01:02:06;97495.88;;;20.35;82.65
13661;BME280;6903;49.480;11.102;2023-06-19T01:04:31;97493.22;;;20.35;82.51
13661;BME280;6903;49.480;11.102;2023-06-19T01:07:03;97499.78;;;20.33;84.07
13661;BME280;6903;49.480;11.102;2023-06-19T01:09:41;97496.28;;;20.32;83.27
13661;BME280;6903;49.480;11.102;2023-06-19T01:12:15;97491.13;;;20.31;83.75
13661;BME280;6903;49.480;11.102;2023-06-19T01:14:55;97488.00;;;20.27;84.79
13661;BME280;6903;49.480;11.102;2023-06-19T01:17:22;97489.38;;;20.23;85.11
13661;BME280;6903;49.480;11.102;2023-06-19T01:19:48;97491.00;;;20.18;85.96
13661;BME280;6903;49.480;11.102;2023-06-19T01:22:43;97485.38;;;20.13;86.49
13661;BME280;6903;49.480;11.102;2023-06-19T01:25:09;97484.91;;;20.09;86.36
13661;BME280;6903;49.480;11.102;2023-06-19T01:27:35;97487.34;;;20.04;86.58
13661;BME280;6903;49.480;11.102;2023-06-19T01:30:02;97491.44;;;20.00;86.38
13661;BME280;6903;49.480;11.102;2023-06-19T01:32:52;97482.13;;;19.96;86.55
13661;BME280;6903;49.480;11.102;2023-06-19T01:35:23;97484.19;;;19.94;87.28
13661;BME280;6903;49.480;11.102;2023-06-19T01:37:49;97485.56;;;19.90;87.74
13661;BME280;6903;49.480;11.102;2023-06-19T01:40:17;97476.25;;;19.86;88.37
13661;BME280;6903;49.480;11.102;2023-06-19T01:42:42;97477.66;;;19.82;88.74
13661;BME280;6903;49.480;11.102;2023-06-19T01:45:08;97481.09;;;19.76;89.22
13661;BME280;6903;49.480;11.102;2023-06-19T01:47:34;97494.03;;;19.73;89.54
13661;BME280;6903;49.480;11.102;2023-06-19T01:49:59;97487.38;;;19.68;89.84
13661;BME280;6903;49.480;11.102;2023-06-19T01:52:25;97483.66;;;19.63;90.26
13661;BME280;6903;49.480;11.102;2023-06-19T01:54:51;97478.88;;;19.58;90.91
13661;BME280;6903;49.480;11.102;2023-06-19T01:57:16;97474.25;;;19.52;91.67
13661;BME280;6903;49.480;11.102;2023-06-19T01:59:42;97475.22;;;19.45;91.81
13661;BME280;6903;49.480;11.102;2023-06-19T02:02:07;97489.16;;;19.40;92.45
13661;BME280;6903;49.480;11.102;2023-06-19T02:04:33;97492.38;;;19.36;92.25
13661;BME280;6903;49.480;11.102;2023-06-19T02:06:58;97499.13;;;19.32;92.15
13661;BME280;6903;49.480;11.102;2023-06-19T02:09:23;97501.84;;;19.24;92.38
13661;BME280;6903;49.480;11.102;2023-06-19T02:11:49;97500.13;;;19.16;93.29
13661;BME280;6903;49.480;11.102;2023-06-19T02:14:14;97493.66;;;19.11;93.55
13661;BME280;6903;49.480;11.102;2023-06-19T02:16:39;97491.75;;;19.05;94.38
13661;BME280;6903;49.480;11.102;2023-06-19T02:19:10;97491.47;;;19.00;94.84
13661;BME280;6903;49.480;11.102;2023-06-19T02:21:35;97492.69;;;18.97;95.28
13661;BME280;6903;49.480;11.102;2023-06-19T02:24:01;97494.44;;;18.90;95.82
13661;BME280;6903;49.480;11.102;2023-06-19T02:26:26;97492.88;;;18.81;96.81
13661;BME280;6903;49.480;11.102;2023-06-19T02:28:54;97494.78;;;18.73;98.67
13661;BME280;6903;49.480;11.102;2023-06-19T02:31:19;97493.97;;;18.72;99.74
13661;BME280;6903;49.480;11.102;2023-06-19T02:33:45;97493.97;;;18.72;100.00
13661;BME280;6903;49.480;11.102;2023-06-19T02:36:10;97487.16;;;18.70;100.00
13661;BME280;6903;49.480;11.102;2023-06-19T02:38:36;97490.81;;;18.69;100.00
13661;BME280;6903;49.480;11.102;2023-06-19T02:41:01;97488.34;;;18.67;100.00
13661;BME280;6903;49.480;11.102;2023-06-19T02:43:26;97496.53;;;18.66;100.00
13661;BME280;6903;49.480;11.102;2023-06-19T02:45:52;97488.16;;;18.69;100.00
13661;BME280;6903;49.480;11.102;2023-06-19T02:48:17;97489.28;;;18.74;100.00
13661;BME280;6903;49.480;11.102;2023-06-19T02:50:42;97484.66;;;18.83;100.00
13661;BME280;6903;49.480;11.102;2023-06-19T02:53:08;97481.91;;;18.91;99.51
13661;BME280;6903;49.480;11.102;2023-06-19T02:55:34;97482.19;;;18.96;98.67
13661;BME280;6903;49.480;11.102;2023-06-19T02:57:59;97481.06;;;19.05;98.68
13661;BME280;6903;49.480;11.102;2023-06-19T03:00:25;97491.19;;;19.09;98.56
13661;BME280;6903;49.480;11.102;2023-06-19T03:02:52;97507.97;;;19.18;97.62
13661;BME280;6903;49.480;11.102;2023-06-19T03:05:18;97492.47;;;19.28;95.44
13661;BME280;6903;49.480;11.102;2023-06-19T03:07:43;97503.09;;;19.36;94.44
13661;BME280;6903;49.480;11.102;2023-06-19T03:10:09;97511.00;;;19.44;92.46
13661;BME280;6903;49.480;11.102;2023-06-19T03:12:34;97498.13;;;19.54;91.52
13661;BME280;6903;49.480;11.102;2023-06-19T03:14:59;97511.56;;;19.60;90.92
13661;BME280;6903;49.480;11.102;2023-06-19T03:17:25;97513.72;;;19.65;90.17
13661;BME280;6903;49.480;11.102;2023-06-19T03:19:50;97517.00;;;19.67;89.70
13661;BME280;6903;49.480;11.102;2023-06-19T03:22:17;97518.31;;;19.71;89.14
13661;BME280;6903;49.480;11.102;2023-06-19T03:24:42;97522.03;;;19.77;87.97
13661;BME280;6903;49.480;11.102;2023-06-19T03:27:07;97529.94;;;19.85;86.91
13661;BME280;6903;49.480;11.102;2023-06-19T03:29:32;97535.38;;;19.91;86.53
13661;BME280;6903;49.480;11.102;2023-06-19T03:31:58;97546.34;;;19.96;86.16
13661;BME280;6903;49.480;11.102;2023-06-19T03:34:23;97550.31;;;20.00;85.42
13661;BME280;6903;49.480;11.102;2023-06-19T03:36:48;97543.94;;;20.01;85.33
13661;BME280;6903;49.480;11.102;2023-06-19T03:39:14;97559.97;;;20.01;85.27
13661;BME280;6903;49.480;11.102;2023-06-19T03:41:39;97562.66;;;20.01;85.68
13661;BME280;6903;49.480;11.102;2023-06-19T03:44:04;97562.47;;;20.03;86.51
13661;BME280;6903;49.480;11.102;2023-06-19T03:46:30;97556.19;;;20.10;86.20
13661;BME280;6903;49.480;11.102;2023-06-19T03:48:55;97576.34;;;20.27;85.57
13661;BME280;6903;49.480;11.102;2023-06-19T03:51:20;97574.66;;;20.47;84.50
13661;BME280;6903;49.480;11.102;2023-06-19T03:53:46;97575.22;;;20.64;83.99
13661;BME280;6903;49.480;11.102;2023-06-19T03:56:11;97575.69;;;20.67;82.83
13661;BME280;6903;49.480;11.102;2023-06-19T03:58:36;97587.03;;;20.69;82.46
13661;BME280;6903;49.480;11.102;2023-06-19T04:01:01;97589.53;;;20.71;82.43
13661;BME280;6903;49.480;11.102;2023-06-19T04:03:27;97591.56;;;20.69;82.68
13661;BME280;6903;49.480;11.102;2023-06-19T04:05:53;97592.19;;;20.71;81.87
13661;BME280;6903;49.480;11.102;2023-06-19T04:08:18;97584.81;;;20.73;81.07
13661;BME280;6903;49.480;11.102;2023-06-19T04:10:43;97589.72;;;20.69;79.99
13661;BME280;6903;49.480;11.102;2023-06-19T04:13:09;97590.09;;;20.66;80.31
13661;BME280;6903;49.480;11.102;2023-06-19T04:15:34;97585.34;;;20.68;80.01
13661;BME280;6903;49.480;11.102;2023-06-19T04:18:00;97584.56;;;20.68;80.33
13661;BME280;6903;49.480;11.102;2023-06-19T04:20:26;97581.69;;;20.69;80.41
13661;BME280;6903;49.480;11.102;2023-06-19T04:22:52;97571.56;;;20.65;81.64
13661;BME280;6903;49.480;11.102;2023-06-19T04:25:17;97582.69;;;20.68;81.80
13661;BME280;6903;49.480;11.102;2023-06-19T04:27:43;97585.59;;;20.73;81.78
13661;BME280;6903;49.480;11.102;2023-06-19T04:30:11;97576.19;;;20.77;81.90
13661;BME280;6903;49.480;11.102;2023-06-19T04:32:36;97584.47;;;20.82;82.48
13661;BME280;6903;49.480;11.102;2023-06-19T04:35:07;97582.03;;;20.87;82.80
13661;BME280;6903;49.480;11.102;2023-06-19T04:37:32;97593.25;;;20.97;82.48
13661;BME280;6903;49.480;11.102;2023-06-19T04:39:57;97596.81;;;21.04;82.14
13661;BME280;6903;49.480;11.102;2023-06-19T04:42:23;97596.47;;;21.14;82.47
13661;BME280;6903;49.480;11.102;2023-06-19T04:44:48;97598.19;;;21.28;82.58
13661;BME280;6903;49.480;11.102;2023-06-19T04:47:19;97598.94;;;21.50;82.18
13661;BME280;6903;49.480;11.102;2023-06-19T04:49:44;97601.28;;;21.66;81.41
13661;BME280;6903;49.480;11.102;2023-06-19T04:52:10;97607.97;;;21.76;81.08
13661;BME280;6903;49.480;11.102;2023-06-19T04:54:36;97610.13;;;21.94;80.24
13661;BME280;6903;49.480;11.102;2023-06-19T04:57:02;97607.03;;;21.97;80.28
13661;BME280;6903;49.480;11.102;2023-06-19T04:59:27;97615.91;;;22.04;80.08
13661;BME280;6903;49.480;11.102;2023-06-19T05:01:52;97609.34;;;22.13;80.32
13661;BME280;6903;49.480;11.102;2023-06-19T05:04:21;97613.69;;;22.14;80.24
13661;BME280;6903;49.480;11.102;2023-06-19T05:06:48;97618.25;;;22.20;80.40
13661;BME280;6903;49.480;11.102;2023-06-19T05:09:13;97606.72;;;22.26;80.53
13661;BME280;6903;49.480;11.102;2023-06-19T05:11:38;97599.66;;;22.25;80.89
13661;BME280;6903;49.480;11.102;2023-06-19T05:14:03;97609.78;;;22.29;81.47
13661;BME280;6903;49.480;11.102;2023-06-19T05:16:29;97615.38;;;22.28;82.34
13661;BME280;6903;49.480;11.102;2023-06-19T05:18:54;97612.09;;;22.39;81.83
13661;BME280;6903;49.480;11.102;2023-06-19T05:21:20;97615.00;;;22.51;81.35
13661;BME280;6903;49.480;11.102;2023-06-19T05:23:45;97613.63;;;22.61;81.51
13661;BME280;6903;49.480;11.102;2023-06-19T05:26:15;97617.13;;;22.68;80.92
13661;BME280;6903;49.480;11.102;2023-06-19T05:28:40;97616.53;;;22.79;81.11
13661;BME280;6903;49.480;11.102;2023-06-19T05:31:06;97620.88;;;23.00;80.50
13661;BME280;6903;49.480;11.102;2023-06-19T05:33:31;97627.69;;;23.28;81.09
13661;BME280;6903;49.480;11.102;2023-06-19T05:35:56;97624.28;;;23.72;79.45
13661;BME280;6903;49.480;11.102;2023-06-19T05:38:22;97636.34;;;24.14;77.71
13661;BME280;6903;49.480;11.102;2023-06-19T05:40:48;97633.72;;;24.45;76.11
13661;BME280;6903;49.480;11.102;2023-06-19T05:43:15;97641.09;;;24.93;74.11
13661;BME280;6903;49.480;11.102;2023-06-19T05:45:40;97636.97;;;25.58;72.03
13661;BME280;6903;49.480;11.102;2023-06-19T05:48:06;97642.25;;;26.25;67.73
13661;BME280;6903;49.480;11.102;2023-06-19T05:50:31;97638.44;;;26.74;65.26
13661;BME280;6903;49.480;11.102;2023-06-19T05:52:56;97648.41;;;27.15;63.39
13661;BME280;6903;49.480;11.102;2023-06-19T05:55:22;97661.19;;;27.60;62.39
13661;BME280;6903;49.480;11.102;2023-06-19T05:57:47;97658.75;;;28.22;60.87
13661;BME280;6903;49.480;11.102;2023-06-19T06:00:13;97662.03;;;28.91;58.98
13661;BME280;6903;49.480;11.102;2023-06-19T06:02:41;97667.34;;;29.48;57.23
13661;BME280;6903;49.480;11.102;2023-06-19T06:05:07;97669.81;;;30.04;55.17
13661;BME280;6903;49.480;11.102;2023-06-19T06:07:34;97687.91;;;30.36;53.58
13661;BME280;6903;49.480;11.102;2023-06-19T06:09:59;97685.88;;;30.70;52.70
13661;BME280;6903;49.480;11.102;2023-06-19T06:12:24;97682.06;;;30.93;51.44
13661;BME280;6903;49.480;11.102;2023-06-19T06:14:50;97670.94;;;30.73;50.95
13661;BME280;6903;49.480;11.102;2023-06-19T06:17:15;97681.19;;;30.66;50.96
13661;BME280;6903;49.480;11.102;2023-06-19T06:19:40;97688.63;;;30.49;54.39
13661;BME280;6903;49.480;11.102;2023-06-19T06:22:06;97686.88;;;30.21;55.27
13661;BME280;6903;49.480;11.102;2023-06-19T06:24:31;97687.31;;;29.91;54.77
13661;BME280;6903;49.480;11.102;2023-06-19T06:26:56;97684.69;;;29.80;54.84
13661;BME280;6903;49.480;11.102;2023-06-19T06:29:24;97684.13;;;29.78;54.12
13661;BME280;6903;49.480;11.102;2023-06-19T06:31:49;97684.53;;;29.70;54.00
13661;BME280;6903;49.480;11.102;2023-06-19T06:34:18;97686.50;;;29.74;53.99
13661;BME280;6903;49.480;11.102;2023-06-19T06:36:43;97695.75;;;29.73;53.79
13661;BME280;6903;49.480;11.102;2023-06-19T06:39:08;97700.19;;;29.46;54.57
13661;BME280;6903;49.480;11.102;2023-06-19T06:41:33;97706.44;;;29.30;54.71
13661;BME280;6903;49.480;11.102;2023-06-19T06:44:00;97705.44;;;29.20;55.52
13661;BME280;6903;49.480;11.102;2023-06-19T06:46:25;97696.16;;;29.16;56.07
13661;BME280;6903;49.480;11.102;2023-06-19T06:48:51;97706.91;;;29.11;56.20
13661;BME280;6903;49.480;11.102;2023-06-19T06:51:16;97716.06;;;28.93;56.53
13661;BME280;6903;49.480;11.102;2023-06-19T06:53:41;97711.03;;;28.85;57.41
13661;BME280;6903;49.480;11.102;2023-06-19T06:56:06;97718.25;;;28.79;57.96
13661;BME280;6903;49.480;11.102;2023-06-19T06:58:32;97724.25;;;28.81;57.35
13661;BME280;6903;49.480;11.102;2023-06-19T07:00:57;97721.66;;;28.86;58.02
13661;BME280;6903;49.480;11.102;2023-06-19T07:03:22;97716.63;;;28.78;58.78
13661;BME280;6903;49.480;11.102;2023-06-19T07:05:48;97719.97;;;28.85;59.08
13661;BME280;6903;49.480;11.102;2023-06-19T07:08:13;97710.78;;;28.86;58.74
13661;BME280;6903;49.480;11.102;2023-06-19T07:10:39;97720.78;;;28.97;58.28
13661;BME280;6903;49.480;11.102;2023-06-19T07:13:04;97711.94;;;29.19;58.61
13661;BME280;6903;49.480;11.102;2023-06-19T07:15:29;97718.28;;;29.41;57.94
13661;BME280;6903;49.480;11.102;2023-06-19T07:17:55;97715.00;;;29.55;57.40
13661;BME280;6903;49.480;11.102;2023-06-19T07:20:21;97726.63;;;29.67;56.54
13661;BME280;6903;49.480;11.102;2023-06-19T07:22:47;97725.78;;;29.83;56.48
13661;BME280;6903;49.480;11.102;2023-06-19T07:25:13;97725.38;;;29.91;56.48
13661;BME280;6903;49.480;11.102;2023-06-19T07:27:40;97721.91;;;29.96;56.15
13661;BME280;6903;49.480;11.102;2023-06-19T07:30:06;97729.97;;;30.07;56.38
13661;BME280;6903;49.480;11.102;2023-06-19T07:32:31;97734.00;;;30.21;56.01
13661;BME280;6903;49.480;11.102;2023-06-19T07:34:56;97739.84;;;30.30;55.42
13661;BME280;6903;49.480;11.102;2023-06-19T07:37:22;97741.91;;;30.44;54.62
13661;BME280;6903;49.480;11.102;2023-06-19T07:39:48;97744.06;;;30.42;54.70
13661;BME280;6903;49.480;11.102;2023-06-19T07:42:15;97735.69;;;30.27;54.88
13661;BME280;6903;49.480;11.102;2023-06-19T07:44:41;97742.31;;;30.31;55.09
13661;BME280;6903;49.480;11.102;2023-06-19T07:47:07;97739.31;;;30.55;53.98
13661;BME280;6903;49.480;11.102;2023-06-19T07:49:32;97744.03;;;30.81;53.65
13661;BME280;6903;49.480;11.102;2023-06-19T07:51:58;97746.34;;;30.94;52.92
13661;BME280;6903;49.480;11.102;2023-06-19T07:54:23;97753.28;;;31.06;52.70
13661;BME280;6903;49.480;11.102;2023-06-19T07:56:49;97739.72;;;31.11;52.46
13661;BME280;6903;49.480;11.102;2023-06-19T07:59:14;97742.53;;;30.95;52.75
13661;BME280;6903;49.480;11.102;2023-06-19T08:01:39;97742.44;;;30.85;53.00
13661;BME280;6903;49.480;11.102;2023-06-19T08:04:05;97745.44;;;30.83;53.42
13661;BME280;6903;49.480;11.102;2023-06-19T08:06:31;97744.34;;;30.84;53.17
13661;BME280;6903;49.480;11.102;2023-06-19T08:08:56;97756.25;;;30.78;53.96
13661;BME280;6903;49.480;11.102;2023-06-19T08:11:22;97754.50;;;30.72;53.87
13661;BME280;6903;49.480;11.102;2023-06-19T08:13:47;97755.41;;;30.78;54.36
13661;BME280;6903;49.480;11.102;2023-06-19T08:16:13;97758.31;;;30.93;54.52
13661;BME280;6903;49.480;11.102;2023-06-19T08:18:38;97763.91;;;31.08;53.85
13661;BME280;6903;49.480;11.102;2023-06-19T08:21:04;97769.28;;;31.24;53.47
13661;BME280;6903;49.480;11.102;2023-06-19T08:23:29;97770.00;;;31.15;53.66
13661;BME280;6903;49.480;11.102;2023-06-19T08:25:54;97764.28;;;31.16;53.12
13661;BME280;6903;49.480;11.102;2023-06-19T08:28:20;97770.19;;;31.08;53.25
13661;BME280;6903;49.480;11.102;2023-06-19T08:30:45;97759.63;;;31.12;52.77
13661;BME280;6903;49.480;11.102;2023-06-19T08:33:11;97770.88;;;31.47;52.98
13661;BME280;6903;49.480;11.102;2023-06-19T08:35:37;97759.03;;;31.95;52.71
13661;BME280;6903;49.480;11.102;2023-06-19T08:38:03;97774.25;;;32.27;51.59
13661;BME280;6903;49.480;11.102;2023-06-19T08:40:28;97759.09;;;32.46;50.45
13661;BME280;6903;49.480;11.102;2023-06-19T08:42:53;97760.78;;;32.57;50.39
13661;BME280;6903;49.480;11.102;2023-06-19T08:45:21;97771.53;;;32.79;50.00
13661;BME280;6903;49.480;11.102;2023-06-19T08:47:49;97768.63;;;33.05;48.75
13661;BME280;6903;49.480;11.102;2023-06-19T08:50:22;97768.66;;;33.11;49.17
13661;BME280;6903;49.480;11.102;2023-06-19T08:52:47;97771.75;;;33.49;48.21
13661;BME280;6903;49.480;11.102;2023-06-19T08:55:13;97771.22;;;33.82;47.06
13661;BME280;6903;49.480;11.102;2023-06-19T08:57:39;97765.75;;;34.12;46.79
13661;BME280;6903;49.480;11.102;2023-06-19T09:00:05;97773.09;;;34.27;45.45
13661;BME280;6903;49.480;11.102;2023-06-19T09:02:45;97778.31;;;34.23;44.93
13661;BME280;6903;49.480;11.102;2023-06-19T09:05:15;97767.06;;;34.45;44.81
13661;BME280;6903;49.480;11.102;2023-06-19T09:07:41;97772.22;;;34.62;44.18
13661;BME280;6903;49.480;11.102;2023-06-19T09:10:18;97757.09;;;34.74;43.72
13661;BME280;6903;49.480;11.102;2023-06-19T09:12:44;97769.94;;;34.89;43.58
13661;BME280;6903;49.480;11.102;2023-06-19T09:15:20;97767.06;;;35.14;42.66
13661;BME280;6903;49.480;11.102;2023-06-19T09:17:45;97763.75;;;35.17;42.33
13661;BME280;6903;49.480;11.102;2023-06-19T09:20:11;97755.72;;;35.30;42.19
13661;BME280;6903;49.480;11.102;2023-06-19T09:22:37;97760.53;;;35.53;42.31
13661;BME280;6903;49.480;11.102;2023-06-19T09:25:02;97751.25;;;35.78;40.94
13661;BME280;6903;49.480;11.102;2023-06-19T09:27:33;97757.25;;;35.51;41.26
13661;BME280;6903;49.480;11.102;2023-06-19T09:29:58;97755.25;;;35.57;40.99
13661;BME280;6903;49.480;11.102;2023-06-19T09:32:28;97757.56;;;35.79;41.02
13661;BME280;6903;49.480;11.102;2023-06-19T09:34:55;97749.56;;;35.87;40.74
13661;BME280;6903;49.480;11.102;2023-06-19T09:37:25;97759.50;;;35.78;40.66
13661;BME280;6903;49.480;11.102;2023-06-19T09:39:58;97747.13;;;35.81;40.29
13661;BME280;6903;49.480;11.102;2023-06-19T09:42:30;97756.66;;;35.54;40.23
13661;BME280;6903;49.480;11.102;2023-06-19T09:45:07;97751.72;;;35.56;41.67
13661;BME280;6903;49.480;11.102;2023-06-19T09:47:38;97749.41;;;36.31;40.49
13661;BME280;6903;49.480;11.102;2023-06-19T09:50:04;97752.00;;;36.93;39.02
13661;BME280;6903;49.480;11.102;2023-06-19T09:52:31;97749.94;;;37.22;38.33
13661;BME280;6903;49.480;11.102;2023-06-19T09:54:57;97755.13;;;37.79;37.60
13661;BME280;6903;49.480;11.102;2023-06-19T09:57:25;97746.59;;;38.13;36.71
13661;BME280;6903;49.480;11.102;2023-06-19T09:59:54;97734.88;;;38.21;35.48
13661;BME280;6903;49.480;11.102;2023-06-19T10:02:22;97744.25;;;38.47;35.34
13661;BME280;6903;49.480;11.102;2023-06-19T10:04:55;97734.03;;;38.34;36.70
13661;BME280;6903;49.480;11.102;2023-06-19T10:07:23;97733.78;;;38.36;35.02
13661;BME280;6903;49.480;11.102;2023-06-19T10:10:08;97729.06;;;38.22;35.77
13661;BME280;6903;49.480;11.102;2023-06-19T10:12:41;97736.31;;;38.73;34.93
13661;BME280;6903;49.480;11.102;2023-06-19T10:15:16;97734.25;;;39.05;34.50
13661;BME280;6903;49.480;11.102;2023-06-19T10:17:54;97740.59;;;39.06;34.60
13661;BME280;6903;49.480;11.102;2023-06-19T10:22:55;97730.16;;;38.21;33.88
13661;BME280;6903;49.480;11.102;2023-06-19T10:25:23;97740.59;;;37.92;34.57
13661;BME280;6903;49.480;11.102;2023-06-19T10:27:48;97733.50;;;37.73;34.91
13661;BME280;6903;49.480;11.102;2023-06-19T10:30:18;97722.16;;;37.05;34.97
13661;BME280;6903;49.480;11.102;2023-06-19T10:32:47;97728.81;;;36.05;36.63
13661;BME280;6903;49.480;11.102;2023-06-19T10:35:13;97724.31;;;36.14;36.70
13661;BME280;6903;49.480;11.102;2023-06-19T10:37:39;97719.97;;;36.36;37.10
13661;BME280;6903;49.480;11.102;2023-06-19T10:40:06;97728.44;;;37.06;36.07
13661;BME280;6903;49.480;11.102;2023-06-19T10:42:34;97725.56;;;37.34;35.29
13661;BME280;6903;49.480;11.102;2023-06-19T10:45:04;97725.94;;;37.46;34.98
13661;BME280;6903;49.480;11.102;2023-06-19T10:47:32;97710.44;;;37.50;34.81
13661;BME280;6903;49.480;11.102;2023-06-19T10:49:58;97712.31;;;36.33;36.20
13661;BME280;6903;49.480;11.102;2023-06-19T10:52:23;97699.94;;;35.06;37.95
13661;BME280;6903;49.480;11.102;2023-06-19T10:54:56;97706.06;;;34.93;39.14
13661;BME280;6903;49.480;11.102;2023-06-19T10:57:31;97703.81;;;35.44;38.33
13661;BME280;6903;49.480;11.102;2023-06-19T10:59:57;97685.53;;;36.20;37.49
13661;BME280;6903;49.480;11.102;2023-06-19T11:02:24;97686.25;;;36.73;36.37
13661;BME280;6903;49.480;11.102;2023-06-19T11:04:52;97687.69;;;36.70;35.97
13661;BME280;6903;49.480;11.102;2023-06-19T11:07:18;97682.88;;;35.82;37.68
13661;BME280;6903;49.480;11.102;2023-06-19T11:09:43;97686.41;;;36.39;36.91
13661;BME280;6903;49.480;11.102;2023-06-19T11:12:09;97688.56;;;36.66;36.09
13661;BME280;6903;49.480;11.102;2023-06-19T11:14:34;97694.78;;;36.01;37.02
13661;BME280;6903;49.480;11.102;2023-06-19T11:17:08;97690.00;;;35.15;38.42
13661;BME280;6903;49.480;11.102;2023-06-19T11:19:33;97680.81;;;35.40;38.78
13661;BME280;6903;49.480;11.102;2023-06-19T11:21:59;97684.31;;;35.79;38.08
13661;BME280;6903;49.480;11.102;2023-06-19T11:24:27;97693.16;;;36.00;37.92
13661;BME280;6903;49.480;11.102;2023-06-19T11:26:53;97686.28;;;36.26;37.39
13661;BME280;6903;49.480;11.102;2023-06-19T11:29:25;97685.22;;;36.69;36.40
13661;BME280;6903;49.480;11.102;2023-06-19T11:32:03;97692.16;;;37.04;35.68
13661;BME280;6903;49.480;11.102;2023-06-19T11:34:34;97687.50;;;37.04;35.39
13661;BME280;6903;49.480;11.102;2023-06-19T11:37:22;97681.09;;;36.24;36.86
13661;BME280;6903;49.480;11.102;2023-06-19T11:39:48;97688.59;;;35.90;37.46
13661;BME280;6903;49.480;11.102;2023-06-19T11:42:14;97680.28;;;36.00;37.37
13661;BME280;6903;49.480;11.102;2023-06-19T11:45:03;97670.31;;;36.04;37.11
13661;BME280;6903;49.480;11.102;2023-06-19T11:47:33;97678.63;;;35.99;37.29
13661;BME280;6903;49.480;11.102;2023-06-19T11:49:59;97674.19;;;35.75;37.93
13661;BME280;6903;49.480;11.102;2023-06-19T11:52:25;97671.06;;;35.86;37.07
13661;BME280;6903;49.480;11.102;2023-06-19T11:54:51;97656.91;;;36.03;37.13
13661;BME280;6903;49.480;11.102;2023-06-19T11:57:16;97658.00;;;35.73;37.32
13661;BME280;6903;49.480;11.102;2023-06-19T11:59:42;97653.22;;;36.12;36.99
13661;BME280;6903;49.480;11.102;2023-06-19T12:02:08;97657.63;;;36.79;35.93
13661;BME280;6903;49.480;11.102;2023-06-19T12:04:34;97650.91;;;37.22;34.99
13661;BME280;6903;49.480;11.102;2023-06-19T12:07:00;97648.03;;;37.32;34.91
13661;BME280;6903;49.480;11.102;2023-06-19T12:09:26;97651.66;;;37.46;34.78
13661;BME280;6903;49.480;11.102;2023-06-19T12:11:51;97648.41;;;37.58;34.64
13661;BME280;6903;49.480;11.102;2023-06-19T12:14:16;97644.91;;;37.84;33.92
13661;BME280;6903;49.480;11.102;2023-06-19T12:16:43;97651.19;;;38.17;33.17
13661;BME280;6903;49.480;11.102;2023-06-19T12:19:10;97643.84;;;38.40;32.38
13661;BME280;6903;49.480;11.102;2023-06-19T12:21:35;97650.97;;;38.41;32.23
13661;BME280;6903;49.480;11.102;2023-06-19T12:24:00;97640.44;;;38.02;32.49
13661;BME280;6903;49.480;11.102;2023-06-19T12:26:26;97643.50;;;38.00;32.42
13661;BME280;6903;49.480;11.102;2023-06-19T12:28:51;97639.34;;;38.03;32.21
13661;BME280;6903;49.480;11.102;2023-06-19T12:31:17;97640.19;;;38.17;31.92
13661;BME280;6903;49.480;11.102;2023-06-19T12:33:43;97646.53;;;38.17;31.70
13661;BME280;6903;49.480;11.102;2023-06-19T12:36:13;97634.34;;;38.05;31.74
13661;BME280;6903;49.480;11.102;2023-06-19T12:38:39;97629.84;;;37.50;31.89
13661;BME280;6903;49.480;11.102;2023-06-19T12:41:05;97640.44;;;36.68;33.13
13661;BME280;6903;49.480;11.102;2023-06-19T12:43:30;97633.63;;;36.19;34.20
13661;BME280;6903;49.480;11.102;2023-06-19T12:45:57;97630.94;;;36.14;34.10
13661;BME280;6903;49.480;11.102;2023-06-19T12:48:24;97630.28;;;36.03;34.59
13661;BME280;6903;49.480;11.102;2023-06-19T12:50:50;97625.94;;;36.21;34.44
13661;BME280;6903;49.480;11.102;2023-06-19T12:53:15;97635.28;;;35.96;34.54
13661;BME280;6903;49.480;11.102;2023-06-19T12:55:40;97634.03;;;36.54;33.88
13661;BME280;6903;49.480;11.102;2023-06-19T12:58:06;97638.84;;;36.20;33.98
13661;BME280;6903;49.480;11.102;2023-06-19T13:00:31;97630.34;;;35.70;34.62